^^
Saratoga-Weather Station Historical Data
Daily Summary for May 19, 2020 Units:  Metric    English   Both
Daily Weekly Monthly Yearly Custom
  High: Low: Average:
Temperature: 17.1 °C 3.1 °C 9.8 °C
Dew Point: 8.7 °C 2.5 °C 5.6 °C
Humidity: 98% 50% 77%
Wind Speed: 6.4km/h 0km/h 0.7km/h
Wind Gust: 9.7km/h - -
Wind- - South
Pressure: 1025.4 hPa 1021.3 hPa -
Precipitation: 0.0 mm    
Historical Graphs
 
 
Tabular Data for May 19, 2020
Time Temperature Dew Point Pressure Wind Wind Speed Wind Gust Humidity Rainfall Rate (Hourly) solar
00:03 6.8 °C 5.4 °C 1025.4 hPa Calm     91% 0.0 mm 0 W/m2
00:08 6.8 °C 5.4 °C 1025.4 hPa Calm     91% 0.0 mm 0 W/m2
00:13 6.7 °C 5.3 °C 1025.4 hPa Calm     91% 0.0 mm 0 W/m2
00:18 6.6 °C 5.2 °C 1025.4 hPa Calm     91% 0.0 mm 0 W/m2
00:23 6.5 °C 5.1 °C 1025.4 hPa Calm     91% 0.0 mm 0 W/m2
00:28 6.4 °C 5 °C 1025.4 hPa Calm     91% 0.0 mm 0 W/m2
00:33 6.3 °C 4.9 °C 1025.4 hPa Calm     91% 0.0 mm 0 W/m2
00:38 6.2 °C 4.8 °C 1025.4 hPa Calm     91% 0.0 mm 0 W/m2
00:43 6.1 °C 4.7 °C 1025.1 hPa Calm     91% 0.0 mm 0 W/m2
00:48 6.1 °C 4.7 °C 1025.1 hPa Calm     91% 0.0 mm 0 W/m2
00:53 5.9 °C 4.5 °C 1025.4 hPa Calm     91% 0.0 mm 0 W/m2
00:58 5.8 °C 4.6 °C 1025.4 hPa Calm     92% 0.0 mm 0 W/m2
01:03 5.7 °C 4.3 °C 1025.4 hPa Calm     91% 0.0 mm 0 W/m2
01:08 5.6 °C 4.4 °C 1025.4 hPa Calm     92% 0.0 mm 0 W/m2
01:13 5.6 °C 4.4 °C 1025.4 hPa Calm     92% 0.0 mm 0 W/m2
01:18 5.4 °C 4.2 °C 1025.4 hPa Calm     92% 0.0 mm 0 W/m2
01:23 5.4 °C 4.2 °C 1025.1 hPa Calm     92% 0.0 mm 0 W/m2
01:28 5.3 °C 4.1 °C 1025.4 hPa Calm     92% 0.0 mm 0 W/m2
01:33 5.2 °C 4 °C 1025.1 hPa Calm     92% 0.0 mm 0 W/m2
01:38 5.1 °C 3.9 °C 1025.1 hPa Calm     92% 0.0 mm 0 W/m2
01:43 5 °C 3.8 °C 1025.1 hPa Calm     92% 0.0 mm 0 W/m2
01:48 4.9 °C 3.9 °C 1025.1 hPa Calm     93% 0.0 mm 0 W/m2
01:53 4.8 °C 3.8 °C 1025.1 hPa Calm     93% 0.0 mm 0 W/m2
01:58 4.8 °C 3.8 °C 1025.1 hPa Calm     93% 0.0 mm 0 W/m2
02:03 4.7 °C 3.7 °C 1025.1 hPa Calm     93% 0.0 mm 0 W/m2
02:08 4.7 °C 3.7 °C 1025.1 hPa Calm     93% 0.0 mm 0 W/m2
02:13 4.7 °C 3.7 °C 1025.1 hPa West 1.4 km/h 1.6 km/h 93% 0.0 mm 0 W/m2
02:18 4.7 °C 3.8 °C 1025.1 hPa Calm   1.6 km/h 94% 0.0 mm 0 W/m2
02:23 4.8 °C 3.9 °C 1025.1 hPa Calm     94% 0.0 mm 0 W/m2
02:28 4.7 °C 3.8 °C 1025.1 hPa Calm     94% 0.0 mm 0 W/m2
02:33 4.7 °C 3.8 °C 1025.1 hPa Calm     94% 0.0 mm 0 W/m2
02:38 4.6 °C 3.7 °C 1025.1 hPa Calm     94% 0.0 mm 0 W/m2
02:43 4.6 °C 3.7 °C 1025.1 hPa Calm     94% 0.0 mm 0 W/m2
02:48 4.6 °C 3.7 °C 1025.1 hPa Calm     94% 0.0 mm 0 W/m2
02:53 4.4 °C 3.5 °C 1025.1 hPa Calm     94% 0.0 mm 0 W/m2
02:58 4.4 °C 3.5 °C 1024.7 hPa Calm     94% 0.0 mm 0 W/m2
03:03 4.4 °C 3.5 °C 1024.7 hPa Calm     94% 0.0 mm 0 W/m2
03:08 4.4 °C 3.5 °C 1024.7 hPa Calm     94% 0.0 mm 0 W/m2
03:13 4.4 °C 3.5 °C 1024.7 hPa Calm     94% 0.0 mm 0 W/m2
03:18 4.3 °C 3.4 °C 1024.7 hPa Calm     94% 0.0 mm 0 W/m2
03:23 4.2 °C 3.3 °C 1024.7 hPa Calm     94% 0.0 mm 0 W/m2
03:28 4.1 °C 3.2 °C 1024.7 hPa Calm     94% 0.0 mm 0 W/m2
03:33 4 °C 3.1 °C 1024.7 hPa Calm     94% 0.0 mm 0 W/m2
03:38 3.9 °C 3 °C 1024.7 hPa Calm     94% 0.0 mm 0 W/m2
03:43 3.8 °C 2.9 °C 1024.7 hPa Calm     94% 0.0 mm 0 W/m2
03:48 3.8 °C 2.9 °C 1024.7 hPa Calm     94% 0.0 mm 0 W/m2
03:53 3.8 °C 2.9 °C 1024.7 hPa Calm     94% 0.0 mm 0 W/m2
03:58 3.8 °C 2.9 °C 1024.7 hPa Calm     94% 0.0 mm 0 W/m2
04:03 3.8 °C 3.1 °C 1024.7 hPa Calm     95% 0.0 mm 0 W/m2
04:08 3.8 °C 3.1 °C 1024.7 hPa Calm     95% 0.0 mm 0 W/m2
04:13 3.8 °C 3.1 °C 1024.7 hPa Calm     95% 0.0 mm 0 W/m2
04:18 3.7 °C 3 °C 1024.7 hPa Calm     95% 0.0 mm 0 W/m2
04:23 3.7 °C 3 °C 1024.7 hPa Calm     95% 0.0 mm 0 W/m2
04:28 3.7 °C 3 °C 1024.4 hPa Calm     95% 0.0 mm 0 W/m2
04:33 3.7 °C 3 °C 1024.4 hPa Calm     95% 0.0 mm 0 W/m2
04:38 3.6 °C 2.9 °C 1024.4 hPa Calm     95% 0.0 mm 0 W/m2
04:43 3.6 °C 2.9 °C 1024.4 hPa Calm     95% 0.0 mm 0 W/m2
04:48 3.6 °C 2.9 °C 1024.4 hPa Calm     95% 0.0 mm 0 W/m2
04:53 3.7 °C 3 °C 1024.4 hPa Calm     95% 0.0 mm 0 W/m2
04:58 3.7 °C 3 °C 1024.4 hPa Calm     95% 0.0 mm 0 W/m2
05:03 3.8 °C 3.1 °C 1024.4 hPa Calm     95% 0.0 mm 0 W/m2
05:08 3.7 °C 3 °C 1024.4 hPa Calm     95% 0.0 mm 0 W/m2
05:13 3.7 °C 3 °C 1024.4 hPa Calm     95% 0.0 mm 0 W/m2
05:18 3.7 °C 3 °C 1024.4 hPa Calm     95% 0.0 mm 0 W/m2
05:23 3.6 °C 2.9 °C 1024.4 hPa Calm     95% 0.0 mm 0 W/m2
05:28 3.5 °C 2.8 °C 1024.4 hPa Calm     95% 0.0 mm 0 W/m2
05:33 3.4 °C 2.7 °C 1024.4 hPa Calm     95% 0.0 mm 0 W/m2
05:38 3.4 °C 2.7 °C 1024.4 hPa Calm   1.6 km/h 95% 0.0 mm 0 W/m2
05:43 3.4 °C 2.7 °C 1024.4 hPa Calm     95% 0.0 mm 0 W/m2
05:48 3.4 °C 2.7 °C 1024.4 hPa Calm     95% 0.0 mm 0 W/m2
05:53 3.4 °C 2.8 °C 1024.7 hPa Calm     96% 0.0 mm 0 W/m2
05:58 3.5 °C 2.9 °C 1024.7 hPa Calm     96% 0.0 mm 0 W/m2
06:03 3.4 °C 2.8 °C 1024.4 hPa Calm     96% 0.0 mm 0 W/m2
06:08 3.5 °C 2.9 °C 1024.4 hPa Calm     96% 0.0 mm 0 W/m2
06:13 3.4 °C 2.8 °C 1024.7 hPa Calm     96% 0.0 mm 0 W/m2
06:18 3.4 °C 2.7 °C 1024.4 hPa Calm     95% 0.0 mm 0 W/m2
06:23 3.3 °C 2.6 °C 1024.4 hPa Calm     95% 0.0 mm 0 W/m2
06:28 3.3 °C 2.7 °C 1024.7 hPa Calm     96% 0.0 mm 0 W/m2
06:33 3.3 °C 2.7 °C 1024.4 hPa Calm     96% 0.0 mm 0 W/m2
06:38 3.2 °C 2.6 °C 1024.4 hPa Calm     96% 0.0 mm 0 W/m2
06:43 3.2 °C 2.6 °C 1024.4 hPa Calm     96% 0.0 mm 5 W/m2
06:48 3.2 °C 2.6 °C 1024.4 hPa Calm     96% 0.0 mm 7 W/m2
06:53 3.2 °C 2.6 °C 1024.4 hPa Calm     96% 0.0 mm 11 W/m2
06:58 3.1 °C 2.5 °C 1024.4 hPa Calm     96% 0.0 mm 14 W/m2
07:03 3.1 °C 2.5 °C 1024.4 hPa Calm     96% 0.0 mm 16 W/m2
07:08 3.1 °C 2.5 °C 1024.7 hPa Calm     96% 0.0 mm 19 W/m2
07:14 3.1 °C 2.5 °C 1024.7 hPa Calm     96% 0.0 mm 21 W/m2
07:19 3.1 °C 2.5 °C 1024.7 hPa Calm     96% 0.0 mm 25 W/m2
07:24 3.2 °C 2.6 °C 1024.7 hPa Calm     96% 0.0 mm 28 W/m2
07:29 3.2 °C 2.6 °C 1024.7 hPa Calm     96% 0.0 mm 30 W/m2
07:34 3.2 °C 2.6 °C 1024.7 hPa Calm     96% 0.0 mm 32 W/m2
07:39 3.3 °C 2.7 °C 1024.7 hPa Calm     96% 0.0 mm 35 W/m2
07:44 3.3 °C 2.7 °C 1024.7 hPa Calm     96% 0.0 mm 37 W/m2
07:49 3.5 °C 2.9 °C 1024.7 hPa Calm     96% 0.0 mm 39 W/m2
07:54 3.6 °C 3 °C 1024.7 hPa Calm     96% 0.0 mm 42 W/m2
07:59 3.7 °C 3.3 °C 1024.7 hPa Calm     97% 0.0 mm 44 W/m2
08:04 3.9 °C 3.5 °C 1024.7 hPa Calm     97% 0.0 mm 84 W/m2
08:09 4.1 °C 3.7 °C 1024.7 hPa Calm     97% 0.0 mm 95 W/m2
08:14 4.2 °C 3.8 °C 1025.1 hPa Calm     97% 0.0 mm 51 W/m2
08:19 4.4 °C 4 °C 1024.7 hPa Calm     97% 0.0 mm 49 W/m2
08:24 4.7 °C 4.3 °C 1025.1 hPa Calm     97% 0.0 mm 149 W/m2
08:29 5.3 °C 4.9 °C 1025.1 hPa Calm     97% 0.0 mm 199 W/m2
08:34 5.9 °C 5.5 °C 1025.1 hPa Calm     97% 0.0 mm 211 W/m2
08:39 6.4 °C 6.1 °C 1025.1 hPa Calm     98% 0.0 mm 223 W/m2
08:45 6.8 °C 6.5 °C 1025.1 hPa Calm   1.6 km/h 98% 0.0 mm 232 W/m2
08:50 7.1 °C 6.8 °C 1025.1 hPa Calm     98% 0.0 mm 244 W/m2
08:55 7.5 °C 7.2 °C 1025.1 hPa West 1.4 km/h 3.2 km/h 98% 0.0 mm 257 W/m2
09:00 7.6 °C 7.3 °C 1025.1 hPa West 1.4 km/h 4.8 km/h 98% 0.0 mm 267 W/m2
09:05 7.9 °C 7.5 °C 1025.1 hPa ENE 3.2 km/h 3.2 km/h 97% 0.0 mm 281 W/m2
09:10 8.3 °C 7.7 °C 1025.1 hPa East 1.4 km/h 4.8 km/h 96% 0.0 mm 295 W/m2
09:15 8.7 °C 7.8 °C 1025.1 hPa ENE 3.2 km/h 4.8 km/h 94% 0.0 mm 302 W/m2
09:20 9 °C 7.8 °C 1025.1 hPa ENE 4.7 km/h 4.8 km/h 92% 0.0 mm 313 W/m2
09:25 9.3 °C 7.7 °C 1025.1 hPa East 3.2 km/h 4.8 km/h 90% 0.0 mm 325 W/m2
09:30 9.6 °C 7.7 °C 1025.1 hPa East 3.2 km/h 3.2 km/h 88% 0.0 mm 336 W/m2
09:35 9.9 °C 7.5 °C 1025.1 hPa East 3.2 km/h 3.2 km/h 85% 0.0 mm 346 W/m2
09:40 10.3 °C 7.5 °C 1025.1 hPa Calm   1.6 km/h 83% 0.0 mm 364 W/m2
09:45 10.6 °C 7.7 °C 1025.1 hPa East 3.2 km/h 3.2 km/h 82% 0.0 mm 374 W/m2
09:50 10.9 °C 7.4 °C 1025.1 hPa Calm   1.6 km/h 79% 0.0 mm 383 W/m2
09:55 10.9 °C 7.2 °C 1025.1 hPa Calm   1.6 km/h 78% 0.0 mm 399 W/m2
10:00 10.9 °C 7.2 °C 1025.1 hPa Calm     78% 0.0 mm 408 W/m2
10:05 11 °C 7.3 °C 1025.1 hPa Calm     78% 0.0 mm 422 W/m2
10:10 11.1 °C 7.4 °C 1025.1 hPa Calm     78% 0.0 mm 417 W/m2
10:15 11.4 °C 7.7 °C 1025.1 hPa Calm   1.6 km/h 78% 0.0 mm 436 W/m2
10:20 12 °C 8.3 °C 1025.1 hPa East 3.2 km/h 4.8 km/h 78% 0.0 mm 443 W/m2
10:25 12.6 °C 8.1 °C 1025.1 hPa Calm   4.8 km/h 74% 0.0 mm 455 W/m2
10:30 12.7 °C 8 °C 1025.1 hPa ESE 3.2 km/h 6.4 km/h 73% 0.0 mm 464 W/m2
10:35 13 °C 7.9 °C 1024.7 hPa ESE 1.4 km/h 4.8 km/h 71% 0.0 mm 466 W/m2
10:40 13.4 °C 8 °C 1024.7 hPa ESE 1.4 km/h 6.4 km/h 70% 0.0 mm 476 W/m2
10:45 13.7 °C 8.1 °C 1024.7 hPa ESE 3.2 km/h 6.4 km/h 69% 0.0 mm 489 W/m2
10:50 14 °C 8.2 °C 1024.7 hPa Calm   4.8 km/h 68% 0.0 mm 496 W/m2
10:55 14.1 °C 8.3 °C 1024.7 hPa SE 4.7 km/h 4.8 km/h 68% 0.0 mm 501 W/m2
11:00 14.3 °C 8 °C 1024.7 hPa East 3.2 km/h 4.8 km/h 66% 0.0 mm 506 W/m2
11:05 14.5 °C 8 °C 1024.7 hPa East 1.4 km/h 6.4 km/h 65% 0.0 mm 512 W/m2
11:10 14.5 °C 8 °C 1024.7 hPa NE 1.4 km/h 3.2 km/h 65% 0.0 mm 519 W/m2
11:15 14.7 °C 8.4 °C 1024.7 hPa NE 1.4 km/h 4.8 km/h 66% 0.0 mm 527 W/m2
11:20 15 °C 8.2 °C 1024.7 hPa Calm   6.4 km/h 64% 0.0 mm 534 W/m2
11:25 15.2 °C 8.4 °C 1024.7 hPa ENE 1.4 km/h 3.2 km/h 64% 0.0 mm 536 W/m2
11:30 15.3 °C 8.1 °C 1024.7 hPa East 3.2 km/h 9.7 km/h 62% 0.0 mm 540 W/m2
11:35 15.2 °C 8.2 °C 1024.7 hPa ENE 1.4 km/h 1.6 km/h 63% 0.0 mm 547 W/m2
11:40 15.3 °C 8.5 °C 1024.4 hPa NE 3.2 km/h 9.7 km/h 64% 0.0 mm 552 W/m2
11:45 15.4 °C 8.2 °C 1024.4 hPa East 1.4 km/h 4.8 km/h 62% 0.0 mm 557 W/m2
11:50 15.6 °C 8.6 °C 1024.4 hPa Calm   9.7 km/h 63% 0.0 mm 557 W/m2
11:55 15.7 °C 8.7 °C 1024.4 hPa ENE 4.7 km/h 4.8 km/h 63% 0.0 mm 555 W/m2
12:00 15.9 °C 8.1 °C 1024.4 hPa ENE 3.2 km/h 8 km/h 60% 0.0 mm 563 W/m2
12:05 16 °C 8.2 °C 1024.0 hPa NW 3.2 km/h 3.2 km/h 60% 0.0 mm 566 W/m2
12:10 16 °C 8.2 °C 1024.0 hPa East 3.2 km/h 8 km/h 60% 0.0 mm 568 W/m2
12:15 16.2 °C 8.2 °C 1024.0 hPa Calm   4.8 km/h 59% 0.0 mm 575 W/m2
12:20 16.2 °C 7.9 °C 1024.0 hPa NW 3.2 km/h 6.4 km/h 58% 0.0 mm 577 W/m2
12:25 16.2 °C 8.2 °C 1024.0 hPa ENE 4.7 km/h 9.7 km/h 59% 0.0 mm 578 W/m2
12:30 16.3 °C 8 °C 1024.0 hPa Calm   4.8 km/h 58% 0.0 mm 580 W/m2
12:35 16.6 °C 8 °C 1024.0 hPa East 6.4 km/h 9.7 km/h 57% 0.0 mm 582 W/m2
12:41 16.7 °C 8.1 °C 1023.7 hPa ENE 1.4 km/h 3.2 km/h 57% 0.0 mm 594 W/m2
12:46 16.6 °C 8.3 °C 1023.7 hPa NNW 1.4 km/h 6.4 km/h 58% 0.0 mm 631 W/m2
12:51 16.4 °C 7.9 °C 1023.7 hPa ENE 3.2 km/h 6.4 km/h 57% 0.0 mm 656 W/m2
12:56 16.2 °C 7.7 °C 1023.7 hPa ESE 1.4 km/h 4.8 km/h 57% 0.0 mm 183 W/m2
13:01 16.2 °C 7.7 °C 1023.7 hPa NNW 1.4 km/h 4.8 km/h 57% 0.0 mm 243 W/m2
13:06 16.1 °C 7.8 °C 1023.4 hPa West 4.7 km/h 4.8 km/h 58% 0.0 mm 236 W/m2
13:11 15.9 °C 7.9 °C 1023.4 hPa Calm   1.6 km/h 59% 0.0 mm 399 W/m2
13:16 15.9 °C 7.4 °C 1023.4 hPa Calm     57% 0.0 mm 151 W/m2
13:21 15.9 °C 7.4 °C 1023.4 hPa NE 1.4 km/h 4.8 km/h 57% 0.0 mm 121 W/m2
13:26 15.9 °C 7.1 °C 1023.4 hPa NNW 3.2 km/h 3.2 km/h 56% 0.0 mm 95 W/m2
13:31 15.9 °C 7.4 °C 1023.4 hPa WSW 3.2 km/h 4.8 km/h 57% 0.0 mm 88 W/m2
13:36 15.7 °C 7.2 °C 1023.4 hPa West 4.7 km/h 9.7 km/h 57% 0.0 mm 88 W/m2
13:42 15.6 °C 6.9 °C 1023.0 hPa Calm   1.6 km/h 56% 0.0 mm 95 W/m2
13:47 15.6 °C 7.1 °C 1023.0 hPa Calm     57% 0.0 mm 102 W/m2
13:52 15.7 °C 6.9 °C 1023.0 hPa Calm   1.6 km/h 56% 0.0 mm 109 W/m2
13:57 15.7 °C 7.2 °C 1023.0 hPa Calm     57% 0.0 mm 114 W/m2
14:02 15.8 °C 7 °C 1023.0 hPa Calm   1.6 km/h 56% 0.0 mm 123 W/m2
14:07 15.8 °C 7.3 °C 1022.7 hPa Calm   1.6 km/h 57% 0.0 mm 134 W/m2
14:12 15.9 °C 6.9 °C 1023.0 hPa NNW 3.2 km/h 3.2 km/h 55% 0.0 mm 134 W/m2
14:17 15.9 °C 7.1 °C 1022.7 hPa WNW 3.2 km/h 3.2 km/h 56% 0.0 mm 132 W/m2
14:22 15.9 °C 7.1 °C 1022.7 hPa WNW 3.2 km/h 3.2 km/h 56% 0.0 mm 125 W/m2
14:27 15.9 °C 7.4 °C 1022.7 hPa West 1.4 km/h 4.8 km/h 57% 0.0 mm 114 W/m2
14:32 15.8 °C 6.8 °C 1022.7 hPa Calm   1.6 km/h 55% 0.0 mm 111 W/m2
14:37 15.8 °C 7.3 °C 1022.7 hPa Calm   1.6 km/h 57% 0.0 mm 105 W/m2
14:42 15.8 °C 7 °C 1022.7 hPa West 3.2 km/h 3.2 km/h 56% 0.0 mm 109 W/m2
14:47 15.8 °C 7.3 °C 1022.4 hPa West 1.4 km/h 1.6 km/h 57% 0.0 mm 118 W/m2
14:52 15.9 °C 6.9 °C 1022.7 hPa West 1.4 km/h 1.6 km/h 55% 0.0 mm 130 W/m2
14:57 15.9 °C 7.1 °C 1022.4 hPa Calm     56% 0.0 mm 139 W/m2
15:02 16.1 °C 6.8 °C 1022.4 hPa NE 1.4 km/h 3.2 km/h 54% 0.0 mm 163 W/m2
15:07 16.1 °C 6.8 °C 1022.4 hPa NW 1.4 km/h 3.2 km/h 54% 0.0 mm 200 W/m2
15:12 16.2 °C 7.1 °C 1022.4 hPa WNW 3.2 km/h 4.8 km/h 55% 0.0 mm 202 W/m2
15:17 16.2 °C 6.6 °C 1022.4 hPa NW 1.4 km/h 1.6 km/h 53% 0.0 mm 181 W/m2
15:22 16.3 °C 6.7 °C 1022.4 hPa Calm   4.8 km/h 53% 0.0 mm 169 W/m2
15:27 16.3 °C 7 °C 1022.4 hPa East 3.2 km/h 3.2 km/h 54% 0.0 mm 169 W/m2
15:32 16.4 °C 6.8 °C 1022.4 hPa ESE 1.4 km/h 4.8 km/h 53% 0.0 mm 179 W/m2
15:37 16.6 °C 7 °C 1022.0 hPa Calm   3.2 km/h 53% 0.0 mm 185 W/m2
15:42 16.6 °C 7 °C 1022.0 hPa Calm   4.8 km/h 53% 0.0 mm 172 W/m2
15:47 16.6 °C 6.7 °C 1022.0 hPa Calm   1.6 km/h 52% 0.0 mm 163 W/m2
15:52 16.6 °C 6.7 °C 1022.0 hPa Calm   4.8 km/h 52% 0.0 mm 155 W/m2
15:57 16.7 °C 7.1 °C 1022.0 hPa NW 1.4 km/h 3.2 km/h 53% 0.0 mm 149 W/m2
16:02 16.6 °C 6.7 °C 1022.0 hPa NW 3.2 km/h 4.8 km/h 52% 0.0 mm 158 W/m2
16:08 16.6 °C 7 °C 1022.0 hPa Calm   3.2 km/h 53% 0.0 mm 179 W/m2
16:13 16.6 °C 6.7 °C 1022.0 hPa North 1.4 km/h 3.2 km/h 52% 0.0 mm 185 W/m2
16:18 16.6 °C 6.7 °C 1022.0 hPa Calm   3.2 km/h 52% 0.0 mm 209 W/m2
16:23 16.7 °C 6.8 °C 1022.0 hPa West 4.7 km/h 6.4 km/h 52% 0.0 mm 190 W/m2
16:28 16.8 °C 6.9 °C 1022.0 hPa Calm   1.6 km/h 52% 0.0 mm 158 W/m2
16:33 16.8 °C 6.6 °C 1021.7 hPa Calm   6.4 km/h 51% 0.0 mm 202 W/m2
16:38 16.8 °C 6.6 °C 1021.7 hPa WNW 1.4 km/h 4.8 km/h 51% 0.0 mm 146 W/m2
16:43 16.8 °C 6.6 °C 1021.7 hPa NNW 3.2 km/h 6.4 km/h 51% 0.0 mm 141 W/m2
16:48 16.7 °C 6.5 °C 1021.7 hPa WNW 3.2 km/h 6.4 km/h 51% 0.0 mm 230 W/m2
16:53 16.7 °C 6.5 °C 1021.7 hPa West 3.2 km/h 4.8 km/h 51% 0.0 mm 237 W/m2
16:58 16.8 °C 6.6 °C 1021.7 hPa NW 3.2 km/h 4.8 km/h 51% 0.0 mm 267 W/m2
17:03 16.9 °C 6.4 °C 1021.7 hPa Calm   3.2 km/h 50% 0.0 mm 151 W/m2
17:08 17.1 °C 6.6 °C 1021.7 hPa NW 1.4 km/h 3.2 km/h 50% 0.0 mm 118 W/m2
17:13 17 °C 6.8 °C 1021.7 hPa NW 3.2 km/h 3.2 km/h 51% 0.0 mm 113 W/m2
17:18 16.9 °C 7 °C 1021.7 hPa ENE 1.4 km/h 6.4 km/h 52% 0.0 mm 105 W/m2
17:23 17.1 °C 6.9 °C 1021.3 hPa NW 1.4 km/h 6.4 km/h 51% 0.0 mm 165 W/m2
17:28 17 °C 6.8 °C 1021.3 hPa Calm   9.7 km/h 51% 0.0 mm 98 W/m2
17:33 16.8 °C 6.3 °C 1021.3 hPa West 4.7 km/h 4.8 km/h 50% 0.0 mm 77 W/m2
17:38 16.7 °C 7.1 °C 1021.3 hPa Calm   9.7 km/h 53% 0.0 mm 109 W/m2
17:43 16.8 °C 6.6 °C 1021.3 hPa NW 3.2 km/h 4.8 km/h 51% 0.0 mm 104 W/m2
17:48 16.8 °C 6.6 °C 1021.3 hPa ENE 3.2 km/h 6.4 km/h 51% 0.0 mm 79 W/m2
17:53 16.7 °C 6.5 °C 1021.3 hPa ENE 1.4 km/h 1.6 km/h 51% 0.0 mm 67 W/m2
17:58 16.6 °C 6.4 °C 1021.3 hPa NW 1.4 km/h 3.2 km/h 51% 0.0 mm 63 W/m2
18:03 16.4 °C 6.5 °C 1021.3 hPa Calm   1.6 km/h 52% 0.0 mm 56 W/m2
18:08 16.3 °C 6.7 °C 1021.3 hPa WNW 1.4 km/h 3.2 km/h 53% 0.0 mm 46 W/m2
18:13 16.1 °C 6.5 °C 1021.3 hPa Calm     53% 0.0 mm 32 W/m2
18:19 15.8 °C 6.5 °C 1021.3 hPa Calm     54% 0.0 mm 25 W/m2
18:24 15.6 °C 6.9 °C 1021.3 hPa Calm     56% 0.0 mm 19 W/m2
18:29 15.4 °C 7.4 °C 1021.3 hPa Calm     59% 0.0 mm 16 W/m2
18:34 15.1 °C 7.4 °C 1021.3 hPa Calm     60% 0.0 mm 12 W/m2
18:39 14.7 °C 7.3 °C 1021.3 hPa Calm     61% 0.0 mm 9 W/m2
18:44 14.3 °C 7.1 °C 1021.7 hPa Calm     62% 0.0 mm 5 W/m2
18:49 13.9 °C 7 °C 1021.7 hPa Calm     63% 0.0 mm 0 W/m2
18:54 13.5 °C 6.8 °C 1021.7 hPa Calm     64% 0.0 mm 0 W/m2
18:59 13.2 °C 6.8 °C 1021.3 hPa Calm     65% 0.0 mm 0 W/m2
19:04 12.8 °C 6.6 °C 1021.7 hPa WNW 1.4 km/h 1.6 km/h 66% 0.0 mm 0 W/m2
19:09 12.6 °C 6.6 °C 1021.7 hPa Calm     67% 0.0 mm 0 W/m2
19:14 12.2 °C 6.5 °C 1021.7 hPa Calm     68% 0.0 mm 0 W/m2
19:19 12 °C 6.5 °C 1021.7 hPa Calm   1.6 km/h 69% 0.0 mm 0 W/m2
19:24 11.7 °C 6.2 °C 1021.7 hPa Calm     69% 0.0 mm 0 W/m2
19:29 11.5 °C 6.2 °C 1021.7 hPa Calm   1.6 km/h 70% 0.0 mm 0 W/m2
19:34 11.3 °C 6.2 °C 1021.7 hPa Calm   1.6 km/h 71% 0.0 mm 0 W/m2
19:39 11.2 °C 6.3 °C 1021.7 hPa Calm     72% 0.0 mm 0 W/m2
19:44 11.1 °C 6.4 °C 1021.7 hPa Calm   1.6 km/h 73% 0.0 mm 0 W/m2
19:49 10.9 °C 6.3 °C 1021.7 hPa Calm   1.6 km/h 73% 0.0 mm 0 W/m2
19:54 10.8 °C 6.2 °C 1021.7 hPa Calm     73% 0.0 mm 0 W/m2
19:59 10.8 °C 6.4 °C 1021.7 hPa Calm     74% 0.0 mm 0 W/m2
20:04 10.7 °C 6.3 °C 1021.7 hPa Calm     74% 0.0 mm 0 W/m2
20:09 10.6 °C 6.2 °C 1021.7 hPa Calm     74% 0.0 mm 0 W/m2
20:14 10.5 °C 6.3 °C 1021.7 hPa Calm     75% 0.0 mm 0 W/m2
20:19 10.3 °C 5.9 °C 1021.7 hPa Calm     74% 0.0 mm 0 W/m2
20:24 10.2 °C 6.2 °C 1021.7 hPa Calm     76% 0.0 mm 0 W/m2
20:29 10.1 °C 6.1 °C 1021.7 hPa Calm     76% 0.0 mm 0 W/m2
20:34 9.9 °C 6.1 °C 1021.7 hPa Calm   1.6 km/h 77% 0.0 mm 0 W/m2
20:39 9.8 °C 6 °C 1021.7 hPa Calm     77% 0.0 mm 0 W/m2
20:44 9.7 °C 6 °C 1021.7 hPa Calm     78% 0.0 mm 0 W/m2
20:49 9.5 °C 5.9 °C 1021.7 hPa Calm     78% 0.0 mm 0 W/m2
20:54 9.4 °C 5.8 °C 1021.7 hPa Calm     78% 0.0 mm 0 W/m2
20:59 9.3 °C 5.8 °C 1021.7 hPa Calm     79% 0.0 mm 0 W/m2
21:04 9.2 °C 5.7 °C 1021.7 hPa Calm     79% 0.0 mm 0 W/m2
21:09 9.1 °C 5.7 °C 1022.0 hPa Calm     79% 0.0 mm 0 W/m2
21:14 9.1 °C 5.8 °C 1022.0 hPa Calm   1.6 km/h 80% 0.0 mm 0 W/m2
21:19 9.1 °C 5.8 °C 1022.0 hPa Calm     80% 0.0 mm 0 W/m2
21:24 9.1 °C 5.8 °C 1022.0 hPa Calm   1.6 km/h 80% 0.0 mm 0 W/m2
21:29 9 °C 5.7 °C 1022.0 hPa Calm   1.6 km/h 80% 0.0 mm 0 W/m2
21:34 8.9 °C 5.6 °C 1022.0 hPa Calm     80% 0.0 mm 0 W/m2
21:39 8.8 °C 5.7 °C 1021.7 hPa ENE 1.4 km/h 1.6 km/h 81% 0.0 mm 0 W/m2
21:44 8.6 °C 5.5 °C 1021.7 hPa Calm     81% 0.0 mm 0 W/m2
21:49 8.4 °C 5.5 °C 1022.0 hPa Calm     82% 0.0 mm 0 W/m2
21:54 8.4 °C 5.5 °C 1021.7 hPa Calm     82% 0.0 mm 0 W/m2
21:59 8.3 °C 5.4 °C 1021.7 hPa Calm     82% 0.0 mm 0 W/m2
22:04 8.2 °C 5.3 °C 1021.7 hPa Calm     82% 0.0 mm 0 W/m2
22:09 8.1 °C 5.4 °C 1022.0 hPa Calm     83% 0.0 mm 0 W/m2
22:14 8 °C 5.3 °C 1021.7 hPa Calm     83% 0.0 mm 0 W/m2
22:19 7.9 °C 5.2 °C 1022.0 hPa Calm     83% 0.0 mm 0 W/m2
22:24 7.8 °C 5.3 °C 1021.7 hPa Calm     84% 0.0 mm 0 W/m2
22:29 7.8 °C 5.3 °C 1021.7 hPa Calm     84% 0.0 mm 0 W/m2
22:34 7.7 °C 5.2 °C 1021.7 hPa Calm     84% 0.0 mm 0 W/m2
22:39 7.6 °C 5.1 °C 1021.7 hPa Calm     84% 0.0 mm 0 W/m2
22:44 7.4 °C 5 °C 1021.7 hPa Calm     85% 0.0 mm 0 W/m2
22:49 7.3 °C 4.9 °C 1021.7 hPa Calm     85% 0.0 mm 0 W/m2
22:54 7.2 °C 5 °C 1021.7 hPa Calm   1.6 km/h 86% 0.0 mm 0 W/m2
22:59 7.2 °C 5 °C 1021.7 hPa Calm     86% 0.0 mm 0 W/m2
23:04 7.2 °C 5.2 °C 1021.7 hPa Calm   1.6 km/h 87% 0.0 mm 0 W/m2
23:09 7.2 °C 5 °C 1021.3 hPa Calm     86% 0.0 mm 0 W/m2
23:14 7.2 °C 5 °C 1021.7 hPa Calm     86% 0.0 mm 0 W/m2
23:19 7.1 °C 4.9 °C 1021.7 hPa Calm     86% 0.0 mm 0 W/m2
23:24 7 °C 4.8 °C 1021.7 hPa Calm     86% 0.0 mm 0 W/m2
23:29 6.9 °C 4.9 °C 1021.3 hPa Calm     87% 0.0 mm 0 W/m2
23:34 6.8 °C 4.8 °C 1021.7 hPa Calm     87% 0.0 mm 0 W/m2
23:39 6.9 °C 4.9 °C 1021.7 hPa Calm     87% 0.0 mm 0 W/m2
23:44 6.8 °C 4.8 °C 1021.3 hPa ENE 1.4 km/h 1.6 km/h 87% 0.0 mm 0 W/m2
23:49 6.7 °C 4.7 °C 1021.3 hPa Calm     87% 0.0 mm 0 W/m2
23:54 6.7 °C 4.9 °C 1021.3 hPa Calm     88% 0.0 mm 0 W/m2
23:59 6.7 °C 4.9 °C 1021.3 hPa Calm     88% 0.0 mm 0 W/m2
Juneau County Weather
Compliments of Weather Underground - 4 mb